Time;durP1;ratioP1;P1;durP2;ratioP2;P2;SDS_P1;SDS_P2;PMS_P1;PMS_P2;Temp;Humidity;BMP_temperature;BMP_pressure;BME280_temperature;BME280_humidity;BME280_pressure;Samples;Min_cycle;Max_cycle;Signal;HPM_P1;HPM_P2
2022/04/09 00:00:21;;;;;;;7.60;2.45;;;7.50;67.20;;;;;;5009386;28;20453;-49
2022/04/09 00:02:50;;;;;;;4.05;1.88;;;7.50;67.20;;;;;;5009884;28;20042;-49
2022/04/09 00:05:18;;;;;;;3.35;2.55;;;7.50;67.30;;;;;;5005724;28;20053;-51
2022/04/09 00:07:49;;;;;;;6.65;1.67;;;7.50;67.70;;;;;;5006836;28;20046;-49
2022/04/09 00:10:19;;;;;;;6.75;2.10;;;7.50;67.60;;;;;;5009420;28;20045;-50
2022/04/09 00:12:50;;;;;;;8.82;3.05;;;7.40;67.60;;;;;;5002260;28;20066;-48
2022/04/09 00:15:21;;;;;;;6.03;2.05;;;7.40;67.60;;;;;;5009349;28;20046;-53
2022/04/09 00:17:48;;;;;;;5.55;2.72;;;7.40;67.60;;;;;;5006850;28;20053;-49
2022/04/09 00:20:21;;;;;;;7.30;2.25;;;7.40;67.80;;;;;;5008978;28;20072;-51
2022/04/09 00:22:53;;;;;;;8.43;2.45;;;7.40;68.00;;;;;;5010853;28;20061;-53
2022/04/09 00:25:24;;;;;;;5.50;2.47;;;7.40;68.00;;;;;;5009493;28;20085;-49
2022/04/09 00:27:51;;;;;;;7.03;2.58;;;7.40;68.10;;;;;;5012418;28;20560;-50
2022/04/09 00:30:25;;;;;;;5.72;2.22;;;7.40;68.10;;;;;;5012317;28;20038;-51
2022/04/09 00:32:51;;;;;;;5.45;2.15;;;7.30;68.10;;;;;;5010921;28;20038;-49
2022/04/09 00:35:21;;;;;;;6.00;2.17;;;7.30;68.20;;;;;;5002567;28;20050;-52
2022/04/09 00:37:49;;;;;;;7.65;2.53;;;7.30;68.30;;;;;;5012620;28;20042;-51
2022/04/09 00:40:18;;;;;;;6.03;2.55;;;7.30;68.30;;;;;;4995006;28;20054;-50
2022/04/09 00:42:50;;;;;;;7.20;2.35;;;7.30;68.50;;;;;;5012142;28;20037;-52
2022/04/09 00:45:21;;;;;;;7.93;2.42;;;7.30;68.50;;;;;;4991772;28;20049;-52
2022/04/09 00:47:48;;;;;;;4.93;2.15;;;7.20;68.60;;;;;;4994407;28;20535;-52
2022/04/09 00:50:15;;;;;;;9.23;2.72;;;7.30;68.60;;;;;;5010524;28;20053;-51
2022/04/09 00:52:49;;;;;;;7.28;2.85;;;7.30;68.60;;;;;;4987198;28;20506;-50
2022/04/09 00:56:12;;;;;;;8.70;2.58;;;7.20;68.60;;;;;;5007616;28;20591;-50
2022/04/09 00:58:13;;;;;;;8.93;2.95;;;7.20;68.70;;;;;;4987159;28;20053;-50
2022/04/09 01:00:41;;;;;;;6.03;2.20;;;7.20;68.80;;;;;;5012222;28;20663;-49
2022/04/09 01:03:18;;;;;;;7.97;2.90;;;7.20;68.90;;;;;;5010014;28;20073;-49
2022/04/09 01:05:55;;;;;;;6.53;2.38;;;7.20;69.00;;;;;;4991524;28;20057;-51
2022/04/09 01:08:23;;;;;;;6.53;2.58;;;7.20;69.10;;;;;;4993839;28;20104;-50
2022/04/09 01:10:51;;;;;;;8.05;2.08;;;7.20;69.10;;;;;;4994581;28;20399;-52
2022/04/09 01:13:23;;;;;;;8.23;2.55;;;7.20;69.10;;;;;;4988132;28;20050;-51
2022/04/09 01:15:50;;;;;;;9.85;3.65;;;7.20;69.10;;;;;;4998725;28;20048;-48
2022/04/09 01:18:22;;;;;;;13.20;3.15;;;7.20;69.10;;;;;;4994096;28;20042;-53
2022/04/09 01:21:01;;;;;;;7.00;2.42;;;7.20;69.20;;;;;;4989158;28;20569;-49
2022/04/09 01:23:28;;;;;;;6.40;2.40;;;7.10;69.20;;;;;;5011689;28;20093;-48
2022/04/09 01:26:05;;;;;;;6.20;2.30;;;7.10;69.30;;;;;;4993575;28;20071;-51
2022/04/09 01:28:38;;;;;;;7.65;2.80;;;7.20;69.50;;;;;;4994267;28;20061;-53
2022/04/09 01:31:08;;;;;;;7.50;2.53;;;7.20;69.60;;;;;;4985461;28;20041;-52
2022/04/09 01:33:35;;;;;;;10.30;2.30;;;7.20;70.20;;;;;;5011226;28;20041;-53
2022/04/09 01:36:02;;;;;;;6.22;2.20;;;7.20;69.60;;;;;;5022370;28;20037;-51
2022/04/09 01:38:30;;;;;;;9.52;2.88;;;7.20;69.50;;;;;;5013412;28;20041;-49
2022/04/09 01:41:01;;;;;;;7.15;2.42;;;7.20;69.60;;;;;;5011750;28;20077;-50
2022/04/09 01:43:35;;;;;;;11.27;2.55;;;7.20;69.60;;;;;;4993509;28;20541;-53
2022/04/09 01:46:02;;;;;;;10.95;2.72;;;7.20;69.60;;;;;;4993518;28;20046;-49
2022/04/09 01:48:31;;;;;;;6.90;2.75;;;7.20;69.50;;;;;;4987027;28;20046;-53
2022/04/09 01:51:01;;;;;;;12.15;2.78;;;7.20;69.40;;;;;;4991582;28;20818;-50
2022/04/09 01:53:28;;;;;;;8.18;3.05;;;7.20;69.40;;;;;;4993979;28;20069;-52
2022/04/09 01:55:55;;;;;;;7.03;2.30;;;7.20;69.20;;;;;;5010440;28;20042;-48
2022/04/09 01:58:26;;;;;;;7.40;2.85;;;7.20;69.30;;;;;;4985457;28;20451;-49
2022/04/09 02:00:58;;;;;;;7.05;2.65;;;7.20;69.20;;;;;;4993458;28;20076;-52
2022/04/09 02:03:33;;;;;;;11.68;3.92;;;7.20;69.30;;;;;;4992940;28;20132;-49
2022/04/09 02:06:03;;;;;;;10.27;3.80;;;7.10;69.20;;;;;;4993152;28;20509;-49
2022/04/09 02:08:32;;;;;;;7.68;2.95;;;7.10;69.30;;;;;;4988560;28;20105;-49
2022/04/09 02:10:59;;;;;;;10.35;4.20;;;7.10;69.30;;;;;;4993030;28;20049;-53
2022/04/09 02:13:30;;;;;;;9.13;3.60;;;7.10;69.40;;;;;;4993357;28;20038;-49
2022/04/09 02:15:57;;;;;;;11.30;3.50;;;7.00;69.40;;;;;;4991631;28;20066;-51
2022/04/09 02:18:29;;;;;;;10.20;4.40;;;7.00;69.40;;;;;;5005896;28;20128;-52
2022/04/09 02:21:01;;;;;;;8.02;4.63;;;7.00;69.50;;;;;;5013343;28;20048;-49
2022/04/09 02:23:31;;;;;;;9.15;4.55;;;7.00;69.50;;;;;;5012904;28;20085;-50
2022/04/09 02:26:02;;;;;;;10.18;4.70;;;7.00;69.50;;;;;;5000033;28;20069;-52
2022/04/09 02:28:32;;;;;;;12.20;5.50;;;6.90;69.60;;;;;;4998562;28;20057;-51
2022/04/09 02:30:59;;;;;;;12.05;5.22;;;6.90;70.30;;;;;;5022070;28;20042;-53
2022/04/09 02:33:33;;;;;;;12.13;4.53;;;6.90;69.90;;;;;;4997326;28;20079;-53
2022/04/09 02:36:12;;;;;;;20.27;5.25;;;6.90;70.10;;;;;;4999667;28;20037;-53
2022/04/09 02:38:42;;;;;;;11.02;4.55;;;6.90;70.10;;;;;;4995179;28;20104;-49
2022/04/09 02:41:11;;;;;;;5.82;4.30;;;7.00;70.10;;;;;;4992636;28;20104;-53
2022/04/09 02:43:41;;;;;;;12.40;4.20;;;7.00;70.00;;;;;;4986931;28;20422;-50
2022/04/09 02:46:11;;;;;;;7.28;3.55;;;7.00;70.00;;;;;;4990837;28;20136;-53
2022/04/09 02:48:43;;;;;;;6.35;3.67;;;7.00;70.00;;;;;;4978494;28;20078;-54
2022/04/09 02:51:16;;;;;;;10.57;3.88;;;7.00;70.00;;;;;;4989081;28;20053;-52
2022/04/09 02:53:44;;;;;;;8.32;4.25;;;7.00;70.00;;;;;;4990942;28;20046;-52
2022/04/09 02:56:13;;;;;;;12.35;3.22;;;7.00;70.10;;;;;;4991883;28;20695;-50
2022/04/09 02:58:40;;;;;;;13.23;3.80;;;7.00;70.80;;;;;;4985945;28;20043;-49
2022/04/09 03:01:12;;;;;;;6.97;2.92;;;7.10;70.20;;;;;;4984750;28;20047;-49
2022/04/09 03:03:44;;;;;;;10.07;3.22;;;7.10;70.10;;;;;;4989296;28;20143;-53
2022/04/09 03:06:11;;;;;;;7.85;3.30;;;7.10;70.10;;;;;;5003585;28;20557;-49
2022/04/09 03:08:38;;;;;;;11.50;2.97;;;7.10;70.00;;;;;;4992142;28;20049;-52
2022/04/09 03:11:09;;;;;;;14.88;2.92;;;7.10;69.90;;;;;;4984518;28;20504;-52
2022/04/09 03:13:41;;;;;;;9.20;3.20;;;7.10;69.90;;;;;;5004200;28;20425;-48
2022/04/09 03:16:12;;;;;;;;;;;7.10;69.80;;;;;;4995230;28;20034;-53
2022/04/09 03:18:40;;;;;;;10.48;4.38;;;7.20;70.00;;;;;;4991822;28;20344;-51
2022/04/09 03:21:09;;;;;;;12.68;4.93;;;7.20;69.40;;;;;;4992417;28;20537;-49
2022/04/09 03:23:40;;;;;;;9.70;4.90;;;7.10;69.40;;;;;;4985873;28;20050;-53
2022/04/09 03:26:08;;;;;;;14.73;4.30;;;7.10;69.50;;;;;;5000591;28;20049;-50
2022/04/09 03:28:44;;;;;;;11.02;4.63;;;7.10;69.50;;;;;;4992637;28;20065;-49
2022/04/09 03:31:11;;;;;;;11.18;4.57;;;7.10;69.50;;;;;;4992512;28;20546;-49
2022/04/09 03:33:41;;;;;;;9.48;5.15;;;7.10;69.50;;;;;;4984620;28;20065;-49
2022/04/09 03:36:20;;;;;;;13.48;4.15;;;7.10;69.60;;;;;;4991803;28;20046;-49
2022/04/09 03:38:49;;;;;;;6.60;3.70;;;7.10;69.60;;;;;;4991829;28;20517;-51
2022/04/09 03:41:18;;;;;;;9.23;4.28;;;7.00;69.60;;;;;;4987145;28;20049;-50
2022/04/09 03:44:12;;;;;;;8.15;3.85;;;7.10;69.70;;;;;;5004936;28;20453;-49
2022/04/09 03:46:48;;;;;;;13.30;4.40;;;7.00;69.60;;;;;;4976002;28;20049;-50
2022/04/09 03:49:20;;;;;;;15.65;5.18;;;7.00;69.70;;;;;;4991558;28;20502;-49
2022/04/09 03:51:52;;;;;;;13.40;4.43;;;7.00;69.80;;;;;;5002957;28;20058;-52
2022/04/09 03:54:21;;;;;;;6.32;3.78;;;7.00;69.90;;;;;;4991696;28;20096;-49
2022/04/09 03:56:49;;;;;;;19.20;5.72;;;7.00;70.10;;;;;;4991513;28;20050;-48
2022/04/09 03:59:19;;;;;;;11.25;5.07;;;7.00;70.20;;;;;;4991792;28;20104;-51
2022/04/09 04:01:50;;;;;;;14.75;3.40;;;7.00;70.30;;;;;;4993928;28;20061;-53
2022/04/09 04:04:21;;;;;;;12.95;3.97;;;7.00;70.30;;;;;;4980054;28;20072;-52
2022/04/09 04:06:50;;;;;;;15.13;4.75;;;7.00;70.10;;;;;;4995319;28;20088;-52
2022/04/09 04:09:22;;;;;;;14.57;3.80;;;7.00;70.10;;;;;;4987555;28;20054;-52
2022/04/09 04:11:53;;;;;;;14.80;4.05;;;7.00;70.00;;;;;;4989883;28;20042;-49
2022/04/09 04:14:22;;;;;;;12.20;4.75;;;7.00;69.80;;;;;;4995549;28;20052;-49
2022/04/09 04:16:49;;;;;;;11.30;3.95;;;7.00;69.70;;;;;;4994198;28;20140;-51
2022/04/09 04:19:21;;;;;;;10.63;4.43;;;7.00;69.70;;;;;;5005825;28;20050;-48
2022/04/09 04:21:57;;;;;;;11.38;4.57;;;7.00;70.30;;;;;;4992207;28;20050;-48
2022/04/09 04:24:30;;;;;;;8.27;4.35;;;6.90;69.60;;;;;;4994850;28;20060;-53
2022/04/09 04:27:00;;;;;;;12.48;4.20;;;6.90;69.70;;;;;;4994896;28;20136;-51
2022/04/09 04:29:31;;;;;;;13.43;3.90;;;6.80;69.60;;;;;;5008361;28;20058;-49
2022/04/09 04:32:01;;;;;;;8.80;4.35;;;6.80;69.70;;;;;;4994446;28;20042;-53
2022/04/09 04:34:28;;;;;;;9.27;3.63;;;6.80;69.80;;;;;;4995321;28;20441;-52
2022/04/09 04:36:55;;;;;;;10.43;3.70;;;6.70;69.80;;;;;;4991327;28;20034;-49
2022/04/09 04:39:24;;;;;;;16.52;4.85;;;6.70;70.00;;;;;;4995408;28;20053;-49
2022/04/09 04:41:56;;;;;;;15.98;3.70;;;6.70;70.00;;;;;;4996076;28;20100;-50
2022/04/09 04:44:28;;;;;;;9.95;2.67;;;6.70;70.20;;;;;;4995738;28;20050;-50
2022/04/09 04:47:01;;;;;;;14.25;3.78;;;6.70;70.30;;;;;;4994615;28;20060;-49
2022/04/09 04:49:30;;;;;;;9.48;3.10;;;6.60;70.30;;;;;;5005684;28;20517;-49
2022/04/09 04:52:03;;;;;;;13.40;3.63;;;6.60;70.40;;;;;;4995002;28;20049;-53
2022/04/09 04:54:33;;;;;;;10.30;3.60;;;6.60;70.40;;;;;;4995787;28;20038;-48
2022/04/09 04:57:00;;;;;;;10.15;3.10;;;6.50;70.50;;;;;;4976054;28;20498;-52
2022/04/09 04:59:29;;;;;;;12.00;2.55;;;6.50;70.60;;;;;;5009803;28;20050;-48
2022/04/09 05:01:58;;;;;;;11.38;3.35;;;6.50;70.70;;;;;;4995255;28;20132;-49
2022/04/09 05:04:30;;;;;;;12.98;3.80;;;6.50;70.90;;;;;;4989909;28;20051;-48
2022/04/09 05:07:03;;;;;;;13.88;3.05;;;6.50;70.90;;;;;;4994201;28;20097;-48
2022/04/09 05:09:38;;;;;;;10.43;3.45;;;6.50;71.00;;;;;;4994230;28;20399;-51
2022/04/09 05:12:12;;;;;;;12.95;3.60;;;6.50;71.00;;;;;;4990746;28;20073;-49
2022/04/09 05:14:43;;;;;;;8.13;2.67;;;6.50;71.10;;;;;;4997418;28;20112;-51
2022/04/09 05:17:18;;;;;;;10.73;2.72;;;6.50;71.10;;;;;;4990516;28;20498;-49
2022/04/09 05:19:45;;;;;;;14.45;3.55;;;6.50;71.20;;;;;;5007455;28;20526;-53
2022/04/09 05:22:15;;;;;;;11.25;2.95;;;6.50;71.10;;;;;;4994258;28;20054;-53
2022/04/09 05:24:56;;;;;;;;;;;6.50;71.20;;;;;;4995311;28;20077;-54
2022/04/09 05:27:27;;;;;;;8.13;3.25;;;6.50;71.40;;;;;;4992526;28;19921;-49
2022/04/09 05:29:56;;;;;;;14.93;3.40;;;6.50;70.80;;;;;;5009117;28;20792;-49
2022/04/09 05:32:27;;;;;;;8.18;3.40;;;6.50;71.00;;;;;;4994894;28;20050;-53
2022/04/09 05:34:57;;;;;;;12.05;3.17;;;6.50;71.10;;;;;;4988802;28;20038;-52
2022/04/09 05:37:35;;;;;;;8.77;2.97;;;6.50;71.10;;;;;;4994370;28;20097;-53
2022/04/09 05:40:05;;;;;;;11.50;2.85;;;6.50;71.10;;;;;;4983329;28;20046;-50
2022/04/09 05:42:32;;;;;;;14.25;2.80;;;6.60;71.20;;;;;;4982529;28;20646;-49
2022/04/09 05:45:02;;;;;;;13.82;2.95;;;6.60;71.30;;;;;;4997560;28;20038;-52
2022/04/09 05:47:32;;;;;;;15.18;2.78;;;6.60;71.30;;;;;;4992240;28;20037;-52
2022/04/09 05:50:03;;;;;;;8.85;3.53;;;6.60;71.30;;;;;;4994535;28;20167;-53
2022/04/09 05:52:31;;;;;;;18.23;3.50;;;6.60;71.30;;;;;;4989210;28;20058;-50
2022/04/09 05:55:06;;;;;;;7.30;2.73;;;6.70;71.40;;;;;;5005577;28;20468;-51
2022/04/09 05:57:36;;;;;;;18.08;4.28;;;6.70;71.30;;;;;;4993702;28;20045;-50
2022/04/09 06:00:07;;;;;;;12.68;3.17;;;6.70;71.40;;;;;;4994698;28;20457;-53
2022/04/09 06:02:41;;;;;;;10.55;3.28;;;6.80;71.40;;;;;;5003384;28;20104;-54
2022/04/09 06:05:20;;;;;;;10.25;2.90;;;6.80;71.40;;;;;;4995319;28;20108;-52
2022/04/09 06:07:49;;;;;;;10.38;3.20;;;6.80;71.40;;;;;;4991117;28;20046;-54
2022/04/09 06:10:20;;;;;;;12.07;3.92;;;6.90;71.50;;;;;;4991425;28;20046;-51
2022/04/09 06:12:47;;;;;;;9.25;3.17;;;6.90;71.50;;;;;;4984871;28;20113;-54
2022/04/09 06:15:22;;;;;;;14.73;4.00;;;6.90;71.40;;;;;;4984022;28;20049;-54
2022/04/09 06:17:52;;;;;;;13.52;3.85;;;7.00;71.30;;;;;;4988574;28;20049;-52
2022/04/09 06:20:20;;;;;;;9.98;4.45;;;7.00;71.30;;;;;;4988648;28;20540;-55
2022/04/09 06:22:47;;;;;;;8.55;3.25;;;7.00;71.30;;;;;;5009029;28;20076;-56
2022/04/09 06:25:18;;;;;;;13.40;4.28;;;7.10;71.50;;;;;;4994376;28;20092;-56
2022/04/09 06:27:48;;;;;;;14.63;4.75;;;7.10;71.70;;;;;;4987319;28;20417;-54
2022/04/09 06:30:15;;;;;;;12.25;4.82;;;7.20;72.00;;;;;;4986994;28;20061;-52
2022/04/09 06:32:53;;;;;;;12.55;4.75;;;7.20;72.20;;;;;;4991318;28;20050;-53
2022/04/09 06:35:26;;;;;;;10.25;4.57;;;7.30;72.20;;;;;;4983157;28;20042;-54
2022/04/09 06:37:53;;;;;;;14.48;4.50;;;7.40;72.10;;;;;;4931817;28;20129;-56
2022/04/09 06:40:21;;;;;;;17.08;6.18;;;7.50;72.00;;;;;;4984398;28;20065;-55
2022/04/09 06:42:47;;;;;;;13.32;4.70;;;7.60;71.90;;;;;;4970285;28;20502;-54
2022/04/09 06:45:34;;;;;;;13.10;4.57;;;7.70;71.70;;;;;;4975613;28;20608;-53
2022/04/09 06:48:26;;;;;;;10.82;4.65;;;7.80;71.30;;;;;;4975144;28;20060;-54
2022/04/09 06:51:11;;;;;;;12.73;4.78;;;7.90;71.00;;;;;;4990966;28;20239;-56
2022/04/09 06:53:40;;;;;;;11.43;4.53;;;8.00;70.50;;;;;;4982870;28;20050;-53
2022/04/09 06:56:08;;;;;;;9.05;4.10;;;8.00;70.20;;;;;;4988885;28;20033;-56
2022/04/09 06:58:35;;;;;;;9.90;4.15;;;8.00;70.20;;;;;;4979453;28;20060;-56
2022/04/09 07:01:03;;;;;;;11.05;4.05;;;8.00;70.20;;;;;;4980571;28;20305;-55
2022/04/09 07:03:36;;;;;;;13.85;4.75;;;8.00;70.20;;;;;;4979669;28;20569;-54
2022/04/09 07:06:04;;;;;;;13.13;4.30;;;8.10;70.20;;;;;;4993654;28;20104;-54
2022/04/09 07:08:30;;;;;;;11.18;4.22;;;8.20;70.40;;;;;;4993495;28;20054;-52
2022/04/09 07:10:57;;;;;;;11.05;4.10;;;8.10;70.20;;;;;;5007614;28;20041;-56
2022/04/09 07:13:24;;;;;;;15.98;5.05;;;8.10;70.20;;;;;;4993450;28;20121;-55
2022/04/09 07:15:51;;;;;;;13.55;4.68;;;8.20;70.30;;;;;;5011895;28;20460;-53
2022/04/09 07:18:17;;;;;;;9.77;4.47;;;8.20;70.40;;;;;;4988437;28;20097;-55
2022/04/09 07:20:44;;;;;;;10.63;3.70;;;8.20;70.30;;;;;;5005891;28;20045;-54
2022/04/09 07:23:11;;;;;;;10.60;4.07;;;8.30;70.40;;;;;;4988438;28;20097;-51
2022/04/09 07:25:42;;;;;;;10.05;3.47;;;8.30;70.30;;;;;;5001044;28;20050;-54
2022/04/09 07:28:09;;;;;;;13.80;4.38;;;8.30;70.30;;;;;;4987019;28;20130;-54
2022/04/09 07:30:36;;;;;;;8.98;4.35;;;8.40;70.10;;;;;;5006590;28;20049;-56
2022/04/09 07:33:03;;;;;;;9.95;4.00;;;8.50;70.00;;;;;;4990484;28;20046;-56
2022/04/09 07:35:31;;;;;;;11.40;4.30;;;8.50;69.80;;;;;;4994804;28;20046;-54
2022/04/09 07:38:00;;;;;;;11.93;4.50;;;8.60;69.80;;;;;;4982802;28;20132;-55
2022/04/09 07:40:29;;;;;;;9.02;4.53;;;8.70;69.80;;;;;;5009306;28;20365;-55
2022/04/09 07:42:58;;;;;;;10.63;5.03;;;8.80;69.70;;;;;;4993033;28;20038;-54
2022/04/09 07:45:25;;;;;;;11.13;3.55;;;8.90;69.70;;;;;;4985268;28;20113;-53
2022/04/09 07:47:58;;;;;;;12.23;4.95;;;9.00;69.60;;;;;;4996998;28;20037;-52
2022/04/09 07:50:25;;;;;;;6.97;3.35;;;9.10;69.20;;;;;;5010923;28;20067;-54
2022/04/09 07:52:53;;;;;;;8.30;3.63;;;9.20;68.90;;;;;;4989521;28;20045;-55
2022/04/09 07:55:20;;;;;;;10.15;3.25;;;9.30;68.60;;;;;;5006120;28;20573;-53
2022/04/09 07:57:50;;;;;;;13.63;3.17;;;9.40;68.30;;;;;;4998492;28;20042;-54
2022/04/09 08:00:19;;;;;;;9.52;3.28;;;9.50;67.90;;;;;;5011286;28;20069;-53
2022/04/09 08:02:51;;;;;;;9.50;4.05;;;9.60;67.80;;;;;;4995344;28;20109;-51
2022/04/09 08:05:18;;;;;;;13.27;4.72;;;9.70;67.80;;;;;;5001414;28;20070;-55
2022/04/09 08:07:49;;;;;;;7.70;2.97;;;9.60;67.60;;;;;;4994618;28;20106;-54
2022/04/09 08:10:16;;;;;;;10.27;2.60;;;9.90;67.40;;;;;;5009647;28;20045;-53
2022/04/09 08:12:45;;;;;;;9.00;2.90;;;10.00;66.80;;;;;;4996979;28;20038;-52
2022/04/09 08:15:12;;;;;;;9.32;3.60;;;10.00;66.40;;;;;;5007146;28;20114;-54
2022/04/09 08:17:45;;;;;;;10.07;3.35;;;10.00;65.90;;;;;;4998990;28;20038;-55
2022/04/09 08:20:14;;;;;;;7.38;2.47;;;10.10;65.80;;;;;;4998473;28;20046;-54
2022/04/09 08:22:41;;;;;;;5.63;2.65;;;10.10;65.70;;;;;;5005168;28;20049;-55
2022/04/09 08:25:12;;;;;;;5.70;2.60;;;10.10;65.70;;;;;;5009951;28;20104;-54
2022/04/09 08:27:39;;;;;;;7.03;2.17;;;10.10;65.80;;;;;;5020449;28;20448;-56
2022/04/09 08:30:07;;;;;;;7.25;2.70;;;10.10;66.10;;;;;;5033237;28;20049;-51
2022/04/09 08:32:36;;;;;;;11.77;3.25;;;10.10;65.50;;;;;;5008360;28;20065;-51
2022/04/09 08:35:03;;;;;;;9.07;3.22;;;10.20;65.30;;;;;;5013452;28;20034;-53
2022/04/09 08:37:35;;;;;;;5.55;2.97;;;10.20;65.30;;;;;;5006528;28;20048;-55
2022/04/09 08:40:03;;;;;;;8.20;3.33;;;10.20;65.20;;;;;;4989634;28;20030;-54
2022/04/09 08:42:35;;;;;;;9.77;3.40;;;10.20;65.00;;;;;;5007935;28;20046;-53
2022/04/09 08:45:03;;;;;;;6.75;2.60;;;10.30;64.80;;;;;;5012671;28;20038;-55
2022/04/09 08:47:35;;;;;;;10.27;3.55;;;10.30;65.30;;;;;;5012847;28;20057;-52
2022/04/09 08:50:03;;;;;;;10.55;3.30;;;10.40;65.00;;;;;;5012098;28;20054;-52
2022/04/09 08:52:29;;;;;;;6.78;3.67;;;10.50;65.20;;;;;;5010311;28;20490;-54
2022/04/09 08:54:59;;;;;;;11.40;3.65;;;10.50;64.50;;;;;;5012666;28;20034;-55
2022/04/09 08:57:29;;;;;;;14.50;3.95;;;10.60;64.60;;;;;;5012770;28;20052;-56
2022/04/09 08:59:56;;;;;;;12.32;3.90;;;10.70;64.30;;;;;;5006943;28;20046;-56
2022/04/09 09:02:28;;;;;;;8.15;3.17;;;10.80;63.80;;;;;;5010437;28;20591;-53
2022/04/09 09:04:55;;;;;;;5.03;2.95;;;10.90;63.90;;;;;;5013080;28;20117;-55
2022/04/09 09:07:24;;;;;;;12.00;3.47;;;11.00;64.00;;;;;;5012304;28;20092;-54
2022/04/09 09:09:52;;;;;;;11.35;3.53;;;11.00;63.10;;;;;;5011624;28;20046;-52
2022/04/09 09:12:31;;;;;;;7.78;3.40;;;11.10;62.30;;;;;;5008281;28;20042;-53
2022/04/09 09:15:03;;;;;;;8.43;3.47;;;11.20;62.00;;;;;;5012558;28;20049;-53
2022/04/09 09:17:30;;;;;;;12.82;3.58;;;11.20;62.30;;;;;;4992970;28;20614;-56
2022/04/09 09:19:58;;;;;;;6.38;2.88;;;11.30;62.60;;;;;;4999821;28;20058;-54
2022/04/09 09:22:38;;;;;;;5.13;2.78;;;11.40;62.10;;;;;;5012501;28;20050;-55
2022/04/09 09:25:10;;;;;;;7.68;3.45;;;11.50;60.70;;;;;;5008105;28;20312;-55
2022/04/09 09:27:41;;;;;;;5.75;2.72;;;11.60;60.90;;;;;;5011839;28;20080;-55
2022/04/09 09:30:10;;;;;;;6.28;2.45;;;11.70;60.00;;;;;;5012418;28;20065;-52
2022/04/09 09:32:41;;;;;;;6.18;2.85;;;11.70;59.50;;;;;;5008781;28;20112;-55
2022/04/09 09:35:12;;;;;;;8.13;3.53;;;11.70;59.40;;;;;;5004947;28;20034;-51
2022/04/09 09:37:39;;;;;;;8.32;2.35;;;11.70;59.50;;;;;;5009841;28;20046;-53
2022/04/09 09:40:11;;;;;;;4.07;2.53;;;11.70;60.20;;;;;;4995757;28;20056;-53
2022/04/09 09:42:39;;;;;;;5.95;2.45;;;11.70;58.90;;;;;;5005449;28;20097;-53
2022/04/09 09:45:09;;;;;;;7.10;3.00;;;11.70;58.50;;;;;;5005196;28;20046;-52
2022/04/09 09:48:02;;;;;;;4.25;2.50;;;11.80;58.80;;;;;;5026303;28;20131;-54
2022/04/09 09:50:54;;;;;;;6.50;2.60;;;11.80;58.10;;;;;;5032071;28;20048;-53
2022/04/09 09:53:37;;;;;;;6.93;2.22;;;11.90;56.90;;;;;;5008664;28;20453;-55
2022/04/09 09:56:08;;;;;;;6.13;2.60;;;12.00;54.60;;;;;;5011380;28;20073;-55
2022/04/09 09:58:36;;;;;;;6.82;2.88;;;12.00;56.80;;;;;;5010430;28;20042;-55
2022/04/09 10:01:20;;;;;;;6.93;2.55;;;12.00;57.50;;;;;;4989929;28;20071;-53
2022/04/09 10:03:47;;;;;;;7.72;3.13;;;12.10;57.30;;;;;;5003927;28;20069;-55
2022/04/09 10:06:18;;;;;;;7.53;3.50;;;12.00;57.90;;;;;;5011157;28;20104;-52
2022/04/09 10:08:45;;;;;;;9.38;2.88;;;12.00;58.50;;;;;;5019496;28;20046;-51
2022/04/09 10:11:17;;;;;;;4.82;2.75;;;12.00;57.90;;;;;;5032484;28;20073;-55
2022/04/09 10:13:47;;;;;;;7.90;2.28;;;11.90;56.90;;;;;;5004940;28;20064;-54
2022/04/09 10:16:21;;;;;;;7.10;2.63;;;11.90;57.30;;;;;;5007001;28;20038;-53
2022/04/09 10:18:50;;;;;;;5.50;2.10;;;12.00;56.70;;;;;;5010376;28;20068;-54
2022/04/09 10:21:18;;;;;;;6.38;2.80;;;12.10;56.30;;;;;;5024419;28;20077;-53
2022/04/09 10:23:47;;;;;;;4.30;2.42;;;12.20;56.30;;;;;;5030933;28;20033;-55
2022/04/09 10:26:15;;;;;;;7.00;2.92;;;12.20;55.90;;;;;;4963760;28;20046;-55
2022/04/09 10:28:42;;;;;;;6.78;2.42;;;12.30;55.70;;;;;;4987992;28;20038;-54
2022/04/09 10:31:23;;;;;;;5.95;2.10;;;12.30;56.70;;;;;;4981565;28;20119;-55
2022/04/09 10:33:56;;;;;;;3.80;1.88;;;12.30;54.50;;;;;;4988033;28;20050;-55
2022/04/09 10:36:41;;;;;;;5.43;2.20;;;12.40;53.30;;;;;;4991815;28;20084;-55
2022/04/09 10:39:41;;;;;;;8.10;2.83;;;12.50;53.60;;;;;;5002009;28;20038;-54
2022/04/09 10:42:09;;;;;;;3.20;2.13;;;12.50;53.20;;;;;;4985813;28;20053;-54
2022/04/09 10:44:42;;;;;;;3.97;1.90;;;12.50;52.70;;;;;;5006056;28;20046;-56
2022/04/09 10:47:14;;;;;;;5.13;2.00;;;12.50;52.60;;;;;;4987435;28;20117;-53
2022/04/09 10:50:02;;;;;;;4.85;1.95;;;12.40;52.60;;;;;;4995918;28;20469;-54
2022/04/09 10:52:30;;;;;;;3.88;2.03;;;12.40;53.40;;;;;;4984628;28;20046;-55
2022/04/09 10:55:10;;;;;;;2.97;1.42;;;12.40;53.40;;;;;;5002843;28;20084;-51
2022/04/09 10:57:52;;;;;;;2.30;1.10;;;12.40;50.70;;;;;;4988439;28;20045;-53
2022/04/09 11:00:29;;;;;;;9.45;1.50;;;12.40;53.10;;;;;;5004852;28;20570;-54
2022/04/09 11:03:11;;;;;;;2.78;1.20;;;12.40;52.90;;;;;;4983123;28;20775;-56
2022/04/09 11:05:40;;;;;;;3.25;1.60;;;12.50;50.60;;;;;;5007082;28;20060;-55
2022/04/09 11:08:08;;;;;;;4.57;1.95;;;12.60;52.80;;;;;;4987333;28;20053;-54
2022/04/09 11:10:35;;;;;;;3.42;1.58;;;12.70;53.40;;;;;;4998561;28;20046;-54
2022/04/09 11:13:03;;;;;;;2.42;2.22;;;12.90;54.20;;;;;;4990936;28;20876;-53
2022/04/09 11:15:30;;;;;;;3.55;1.40;;;13.10;53.50;;;;;;5005202;28;20042;-56
2022/04/09 11:18:01;;;;;;;5.32;1.40;;;13.10;53.60;;;;;;4986471;28;20803;-53
2022/04/09 11:20:36;;;;;;;5.38;1.75;;;13.20;52.70;;;;;;4991870;28;20062;-56
2022/04/09 11:23:16;;;;;;;1.88;0.93;;;13.20;52.20;;;;;;4990308;28;20045;-55
2022/04/09 11:25:44;;;;;;;1.75;0.90;;;13.30;50.80;;;;;;4983507;28;20624;-56
2022/04/09 11:28:17;;;;;;;6.25;1.15;;;13.10;51.60;;;;;;4982021;28;20097;-54
2022/04/09 11:30:54;;;;;;;3.55;0.98;;;13.30;51.50;;;;;;4984204;28;20096;-56
2022/04/09 11:33:22;;;;;;;3.92;1.23;;;13.20;50.10;;;;;;5003214;28;20038;-56
2022/04/09 11:35:51;;;;;;;4.35;1.02;;;13.10;50.80;;;;;;4988166;28;20940;-55
2022/04/09 11:38:23;;;;;;;3.10;1.10;;;13.10;50.40;;;;;;4990356;28;20043;-53
2022/04/09 11:40:49;;;;;;;2.95;1.20;;;13.20;49.80;;;;;;4989309;28;20930;-51
2022/04/09 11:43:18;;;;;;;1.38;0.88;;;13.20;50.20;;;;;;4993717;28;20050;-54
2022/04/09 11:45:48;;;;;;;2.17;1.23;;;13.20;50.90;;;;;;4984476;28;20101;-56
2022/04/09 11:48:21;;;;;;;5.78;1.45;;;13.30;49.60;;;;;;4988773;28;20104;-51
2022/04/09 11:50:48;;;;;;;4.10;1.15;;;13.30;49.40;;;;;;4987849;28;20080;-53
2022/04/09 11:53:23;;;;;;;3.53;1.30;;;13.40;49.40;;;;;;4991348;28;20049;-51
2022/04/09 11:55:58;;;;;;;3.05;1.23;;;13.40;48.20;;;;;;4993088;28;20046;-54
2022/04/09 11:58:34;;;;;;;3.40;1.13;;;13.40;48.10;;;;;;4991550;28;20117;-56
2022/04/09 12:01:05;;;;;;;2.08;1.00;;;13.50;48.50;;;;;;4984717;28;20037;-56
2022/04/09 12:03:32;;;;;;;2.08;1.00;;;13.40;48.10;;;;;;5002025;28;20255;-53
2022/04/09 12:06:03;;;;;;;2.50;0.60;;;13.40;46.40;;;;;;4995223;28;21068;-53
2022/04/09 12:08:33;;;;;;;0.60;0.50;;;13.30;49.80;;;;;;4993698;28;20046;-52
2022/04/09 12:11:11;;;;;;;0.75;0.52;;;13.10;50.10;;;;;;4993866;28;20599;-55
2022/04/09 12:13:39;;;;;;;1.30;0.80;;;12.80;50.10;;;;;;4995734;28;20042;-54
2022/04/09 12:16:08;;;;;;;0.50;0.50;;;12.50;50.70;;;;;;4987385;28;20082;-55
2022/04/09 12:18:36;;;;;;;1.83;0.50;;;12.10;50.40;;;;;;4997754;28;20557;-51
2022/04/09 12:21:22;;;;;;;3.65;0.52;;;11.90;51.50;;;;;;4998472;28;20439;-54
2022/04/09 12:24:02;;;;;;;2.38;0.68;;;11.60;52.10;;;;;;4999799;28;20035;-56
2022/04/09 12:26:30;;;;;;;1.48;0.70;;;11.50;54.80;;;;;;4977519;28;20042;-54
2022/04/09 12:29:23;;;;;;;2.08;0.98;;;11.40;54.50;;;;;;5008829;28;20112;-54
2022/04/09 12:32:13;;;;;;;1.60;0.98;;;11.30;54.70;;;;;;4998509;28;20068;-54
2022/04/09 12:34:56;;;;;;;2.53;0.50;;;11.30;54.00;;;;;;4994172;28;20033;-54
2022/04/09 12:37:24;;;;;;;5.38;1.27;;;11.40;53.30;;;;;;4993505;28;20053;-53
2022/04/09 12:39:52;;;;;;;5.05;1.05;;;11.50;54.60;;;;;;5002457;28;20038;-54
2022/04/09 12:42:30;;;;;;;2.25;0.50;;;11.70;53.40;;;;;;4986376;28;20046;-53
2022/04/09 12:45:12;;;;;;;4.20;0.82;;;11.90;47.80;;;;;;5009447;28;20418;-51
2022/04/09 12:47:39;;;;;;;1.15;0.30;;;12.10;48.10;;;;;;4987111;28;20106;-54
2022/04/09 12:50:17;;;;;;;1.25;0.47;;;12.20;50.10;;;;;;4991169;28;20085;-55
2022/04/09 12:52:44;;;;;;;1.05;0.50;;;12.40;48.80;;;;;;4987388;28;20042;-56
2022/04/09 12:55:15;;;;;;;3.00;1.17;;;12.50;50.00;;;;;;5008800;28;20214;-55
2022/04/09 12:57:41;;;;;;;0.60;0.40;;;12.70;49.10;;;;;;4990675;28;20069;-52
2022/04/09 13:00:09;;;;;;;1.50;0.77;;;12.80;49.10;;;;;;4993875;28;20042;-51
2022/04/09 13:02:36;;;;;;;6.03;0.80;;;12.90;47.50;;;;;;4992431;28;20073;-55
2022/04/09 13:05:05;;;;;;;3.00;0.52;;;13.00;48.90;;;;;;5005391;28;20045;-51
2022/04/09 13:07:32;;;;;;;3.33;0.70;;;13.10;48.20;;;;;;4992111;28;20509;-53
2022/04/09 13:09:58;;;;;;;1.77;0.70;;;13.10;47.50;;;;;;5002611;28;20413;-54